Time;durP1;ratioP1;P1;durP2;ratioP2;P2;SDS_P1;SDS_P2;PMS_P1;PMS_P2;Temp;Humidity;BMP_temperature;BMP_pressure;BME280_temperature;BME280_humidity;BME280_pressure;Samples;Min_cycle;Max_cycle;Signal;HPM_P1;HPM_P2
2021/04/01 00:00:34;;;;;;;3.97;1.30;;;0.70;99.90;;;;;;5031638;28;20189;-78
2021/04/01 00:02:59;;;;;;;1.40;1.02;;;0.60;99.90;;;;;;5048250;28;20206;-78
2021/04/01 00:05:28;;;;;;;1.27;1.17;;;0.50;99.90;;;;;;5035095;28;20211;-78
2021/04/01 00:07:53;;;;;;;2.72;1.00;;;0.50;99.90;;;;;;5037002;28;20194;-78
2021/04/01 00:10:23;;;;;;;2.38;1.30;;;0.40;99.90;;;;;;5038900;28;20308;-79
2021/04/01 00:12:48;;;;;;;1.65;1.10;;;0.30;99.90;;;;;;5032915;28;20550;-78
2021/04/01 00:15:15;;;;;;;2.42;1.10;;;0.30;99.90;;;;;;5048011;28;20323;-78
2021/04/01 00:17:44;;;;;;;1.48;1.17;;;0.30;99.90;;;;;;5031994;28;20224;-80
2021/04/01 00:20:13;;;;;;;3.00;1.13;;;0.30;99.90;;;;;;5058463;28;20189;-78
2021/04/01 00:22:40;;;;;;;1.35;1.20;;;0.30;99.90;;;;;;5055550;28;20201;-82
2021/04/01 00:25:08;;;;;;;3.03;1.23;;;0.30;99.90;;;;;;5033698;28;20280;-78
2021/04/01 00:27:34;;;;;;;1.25;1.00;;;0.20;99.90;;;;;;5031621;28;20323;-83
2021/04/01 00:29:59;;;;;;;2.80;1.20;;;0.20;99.90;;;;;;5052240;28;20235;-78
2021/04/01 00:32:25;;;;;;;1.15;1.00;;;0.20;99.90;;;;;;5033406;28;20261;-80
2021/04/01 00:34:51;;;;;;;1.33;1.20;;;0.20;99.90;;;;;;5063334;28;20224;-78
2021/04/01 00:37:17;;;;;;;1.38;1.20;;;0.20;99.90;;;;;;5038400;28;20287;-78
2021/04/01 00:39:42;;;;;;;4.25;1.15;;;0.20;99.90;;;;;;5049718;28;20210;-79
2021/04/01 00:42:08;;;;;;;1.13;1.02;;;0.20;99.90;;;;;;5032766;28;20190;-79
2021/04/01 00:44:35;;;;;;;3.20;1.00;;;0.30;99.90;;;;;;5048187;28;20252;-78
2021/04/01 00:47:08;;;;;;;1.95;1.17;;;0.20;99.90;;;;;;5034477;28;20236;-82
2021/04/01 00:49:37;;;;;;;0.82;0.82;;;0.20;99.90;;;;;;5045961;28;20193;-78
2021/04/01 00:52:05;;;;;;;2.10;1.10;;;0.20;99.90;;;;;;5035750;28;20208;-80
2021/04/01 00:54:31;;;;;;;1.73;1.15;;;0.20;99.90;;;;;;5029918;28;20204;-82
2021/04/01 00:56:57;;;;;;;1.15;1.05;;;0.20;99.90;;;;;;5028889;28;20255;-78
2021/04/01 00:59:23;;;;;;;6.03;1.20;;;0.10;99.90;;;;;;5030739;28;20213;-78
2021/04/01 01:01:51;;;;;;;2.08;1.30;;;0.00;99.90;;;;;;5053238;28;20319;-80
2021/04/01 01:04:18;;;;;;;1.20;1.10;;;0.00;99.90;;;;;;5051269;28;20745;-79
2021/04/01 01:06:45;;;;;;;6.80;1.05;;;0.00;99.90;;;;;;5050596;28;20200;-77
2021/04/01 01:09:11;;;;;;;1.13;1.08;;;0.10;99.90;;;;;;5030523;28;20560;-78
2021/04/01 01:11:38;;;;;;;1.20;1.10;;;0.10;99.90;;;;;;5055581;28;20201;-78
2021/04/01 01:14:08;;;;;;;0.90;0.90;;;0.10;99.90;;;;;;5046135;28;20221;-78
2021/04/01 01:16:34;;;;;;;1.40;1.10;;;0.20;99.90;;;;;;5049181;28;20200;-79
2021/04/01 01:19:03;;;;;;;2.65;1.20;;;0.20;99.90;;;;;;5032446;28;20218;-78
2021/04/01 01:21:28;;;;;;;1.85;1.10;;;0.20;99.90;;;;;;5031530;28;20190;-78
2021/04/01 01:23:55;;;;;;;0.93;0.90;;;0.30;99.90;;;;;;5050954;28;20204;-78
2021/04/01 01:26:21;;;;;;;0.95;0.93;;;0.30;99.90;;;;;;5050367;28;20197;-77
2021/04/01 01:28:47;;;;;;;1.80;1.00;;;0.30;99.90;;;;;;5053465;28;20531;-78
2021/04/01 01:31:14;;;;;;;2.25;0.95;;;0.30;99.90;;;;;;5034161;28;20223;-79
2021/04/01 01:33:44;;;;;;;1.10;1.00;;;0.30;99.90;;;;;;5038544;28;20288;-79
2021/04/01 01:36:14;;;;;;;2.60;1.10;;;0.20;99.90;;;;;;5032180;28;20200;-78
2021/04/01 01:38:40;;;;;;;2.10;1.15;;;0.20;99.90;;;;;;5031423;28;20209;-78
2021/04/01 01:41:07;;;;;;;1.10;1.00;;;0.20;99.90;;;;;;5054451;28;20334;-77
2021/04/01 01:43:36;;;;;;;1.70;1.00;;;0.20;99.90;;;;;;5052907;28;20231;-78
2021/04/01 01:46:02;;;;;;;0.93;0.90;;;0.20;99.90;;;;;;5051113;28;20549;-79
2021/04/01 01:48:27;;;;;;;7.53;0.95;;;0.10;99.90;;;;;;5031565;28;20230;-81
2021/04/01 01:50:53;;;;;;;0.95;0.95;;;0.20;99.90;;;;;;5031432;28;20198;-78
2021/04/01 01:53:19;;;;;;;1.20;1.10;;;0.30;99.90;;;;;;5030464;28;20370;-79
2021/04/01 01:55:46;;;;;;;1.45;1.08;;;0.30;99.90;;;;;;5045682;28;20197;-78
2021/04/01 01:58:12;;;;;;;0.88;0.88;;;0.30;99.90;;;;;;5031978;28;20201;-78
2021/04/01 02:00:51;;;;;;;1.08;1.00;;;0.30;99.90;;;;;;5027441;28;20252;-79
2021/04/01 02:03:17;;;;;;;1.80;0.93;;;0.20;99.90;;;;;;5046774;28;20681;-78
2021/04/01 02:05:43;;;;;;;0.93;0.77;;;0.30;99.90;;;;;;5030623;28;20256;-78
2021/04/01 02:08:12;;;;;;;1.80;1.05;;;0.20;99.90;;;;;;5029985;28;20205;-78
2021/04/01 02:10:44;;;;;;;1.35;0.90;;;0.20;99.90;;;;;;5054117;28;20236;-80
2021/04/01 02:13:12;;;;;;;1.15;1.02;;;0.10;99.90;;;;;;5042662;28;20591;-78
2021/04/01 02:15:40;;;;;;;2.20;1.00;;;0.10;99.90;;;;;;5050898;28;20620;-78
2021/04/01 02:18:10;;;;;;;1.10;1.00;;;0.10;99.90;;;;;;5030719;28;20197;-77
2021/04/01 02:20:45;;;;;;;1.05;1.00;;;0.10;99.90;;;;;;5035312;28;20551;-78
2021/04/01 02:23:17;;;;;;;3.17;1.10;;;0.00;99.90;;;;;;5051877;28;20215;-79
2021/04/01 02:25:45;;;;;;;3.65;1.17;;;-0.10;99.90;;;;;;5031120;28;20663;-78
2021/04/01 02:28:12;;;;;;;1.35;1.10;;;-0.10;99.90;;;;;;5047739;28;20592;-79
2021/04/01 02:30:39;;;;;;;0.95;0.95;;;-0.20;99.90;;;;;;5029085;28;20205;-79
2021/04/01 02:33:05;;;;;;;1.33;1.00;;;-0.20;99.90;;;;;;5028705;28;20280;-78
2021/04/01 02:35:32;;;;;;;3.25;1.02;;;-0.20;99.90;;;;;;5051614;28;20277;-79
2021/04/01 02:37:58;;;;;;;1.15;1.05;;;-0.20;99.90;;;;;;5029593;28;20286;-77
2021/04/01 02:40:24;;;;;;;1.25;1.10;;;-0.20;99.90;;;;;;5028646;28;20592;-78
2021/04/01 02:42:51;;;;;;;2.45;1.30;;;-0.30;99.90;;;;;;5053638;28;20689;-78
2021/04/01 02:45:17;;;;;;;1.42;1.02;;;-0.20;99.90;;;;;;5034538;28;20195;-78
2021/04/01 02:47:43;;;;;;;1.27;1.00;;;-0.30;99.90;;;;;;5033767;28;20721;-78
2021/04/01 02:50:10;;;;;;;0.95;0.95;;;-0.30;99.90;;;;;;5032918;28;20686;-81
2021/04/01 02:52:37;;;;;;;2.95;1.38;;;-0.20;99.90;;;;;;5055061;28;20215;-79
2021/04/01 02:55:05;;;;;;;1.08;1.00;;;-0.20;99.90;;;;;;5035567;28;20185;-79
2021/04/01 02:57:30;;;;;;;0.80;0.80;;;-0.20;99.90;;;;;;5037193;28;20207;-84
2021/04/01 02:59:56;;;;;;;1.10;1.00;;;-0.10;99.90;;;;;;5033795;28;20193;-79
2021/04/01 03:02:25;;;;;;;0.95;0.95;;;-0.20;99.90;;;;;;5031318;28;20277;-79
2021/04/01 03:04:50;;;;;;;1.10;1.00;;;-0.20;99.90;;;;;;5034972;28;20309;-80
2021/04/01 03:07:16;;;;;;;1.85;1.10;;;-0.10;99.90;;;;;;5037724;28;20284;-79
2021/04/01 03:09:42;;;;;;;1.50;1.00;;;0.00;99.90;;;;;;5031052;28;20217;-79
2021/04/01 03:12:08;;;;;;;0.88;0.88;;;0.00;99.90;;;;;;5037368;28;20201;-81
2021/04/01 03:14:34;;;;;;;3.15;1.10;;;0.00;99.90;;;;;;5031159;28;20339;-79
2021/04/01 03:17:00;;;;;;;1.30;1.10;;;-0.10;99.90;;;;;;5035152;28;20764;-79
2021/04/01 03:19:26;;;;;;;0.80;0.80;;;-0.10;99.90;;;;;;5031279;28;20201;-81
2021/04/01 03:21:51;;;;;;;1.42;1.05;;;-0.10;99.90;;;;;;5039952;28;20216;-81
2021/04/01 03:24:17;;;;;;;1.25;0.90;;;-0.20;99.90;;;;;;5037163;28;20632;-79
2021/04/01 03:26:43;;;;;;;0.90;0.90;;;-0.30;99.90;;;;;;5035252;28;20191;-79
2021/04/01 03:29:09;;;;;;;1.17;0.95;;;-0.40;99.90;;;;;;5032545;28;20212;-82
2021/04/01 03:31:35;;;;;;;1.20;1.10;;;-0.40;99.90;;;;;;5038370;28;20198;-79
2021/04/01 03:34:01;;;;;;;1.00;1.00;;;-0.50;99.90;;;;;;5032476;28;20280;-83
2021/04/01 03:36:26;;;;;;;1.00;1.00;;;-0.50;99.90;;;;;;5050481;28;20590;-79
2021/04/01 03:38:53;;;;;;;1.20;1.10;;;-0.50;99.90;;;;;;5036641;28;20209;-80
2021/04/01 03:41:19;;;;;;;1.77;1.20;;;-0.50;99.90;;;;;;5053942;28;20663;-82
2021/04/01 03:43:44;;;;;;;1.38;1.27;;;-0.60;99.90;;;;;;5044985;28;20201;-79
2021/04/01 03:46:12;;;;;;;1.20;1.10;;;-0.70;99.90;;;;;;5033418;28;20198;-79
2021/04/01 03:48:38;;;;;;;1.13;1.08;;;-0.70;99.90;;;;;;5037162;28;20205;-79
2021/04/01 03:51:04;;;;;;;1.20;1.10;;;-0.80;99.90;;;;;;5033265;28;20594;-79
2021/04/01 03:53:29;;;;;;;1.20;1.10;;;-0.80;99.90;;;;;;5053286;28;20864;-84
2021/04/01 03:55:55;;;;;;;1.30;1.20;;;-0.90;99.90;;;;;;5033179;28;20673;-79
2021/04/01 04:14:00;;;;;;;1.02;1.00;;;-0.90;99.90;;;;;;5040677;28;20229;-79
2021/04/01 04:16:26;;;;;;;0.90;0.90;;;-0.80;99.90;;;;;;5028209;28;20208;-80
2021/04/01 04:18:52;;;;;;;1.48;0.93;;;-0.70;99.90;;;;;;5029012;28;20213;-81
2021/04/01 04:21:17;;;;;;;1.85;1.10;;;-0.70;99.90;;;;;;5030332;28;20340;-81
2021/04/01 04:23:48;;;;;;;0.90;0.90;;;-0.80;99.90;;;;;;5026427;28;20251;-81
2021/04/01 04:26:15;;;;;;;1.10;1.00;;;-0.80;99.90;;;;;;5027242;28;20193;-81
2021/04/01 04:28:41;;;;;;;0.93;0.90;;;-0.70;99.90;;;;;;5042618;28;21300;-80
2021/04/01 04:31:07;;;;;;;0.90;0.90;;;-0.70;99.90;;;;;;5026864;28;20563;-79
2021/04/01 04:33:34;;;;;;;1.10;1.00;;;-0.70;99.90;;;;;;5027278;28;20287;-79
2021/04/01 04:36:00;;;;;;;1.08;0.93;;;-0.70;99.90;;;;;;5041035;28;20759;-82
2021/04/01 04:38:26;;;;;;;1.63;0.90;;;-0.60;99.90;;;;;;5028444;28;20288;-82
2021/04/01 04:40:59;;;;;;;0.90;0.90;;;-0.60;99.90;;;;;;5044721;28;20198;-80
2021/04/01 04:43:26;;;;;;;2.75;0.95;;;-0.60;99.90;;;;;;5043467;28;20194;-80
2021/04/01 04:45:52;;;;;;;1.08;0.90;;;-0.60;99.90;;;;;;5030435;28;20201;-79
2021/04/01 04:48:18;;;;;;;1.92;1.00;;;-0.60;99.90;;;;;;5027045;28;20227;-79
2021/04/01 04:50:44;;;;;;;1.25;1.05;;;-0.50;99.90;;;;;;5028356;28;20919;-80
2021/04/01 04:53:10;;;;;;;1.58;1.00;;;-0.40;99.90;;;;;;5028575;28;20197;-80
2021/04/01 04:55:36;;;;;;;0.90;0.90;;;-0.40;99.90;;;;;;5024416;28;20854;-79
2021/04/01 05:06:45;;;;;;;1.80;1.10;;;-0.30;99.90;;;;;;4925293;29;20419;-80
2021/04/01 05:09:03;;;;;;;0.85;0.80;;;-0.20;99.90;;;;;;5027716;28;20614;-80
2021/04/01 05:11:31;;;;;;;1.25;0.90;;;-0.20;99.90;;;;;;5035882;28;20223;-81
2021/04/01 05:13:57;;;;;;;0.90;0.90;;;-0.10;99.90;;;;;;5039587;28;20229;-78
2021/04/01 05:16:22;;;;;;;2.08;1.08;;;-0.10;99.90;;;;;;5041276;28;20672;-80
2021/04/01 05:18:48;;;;;;;1.13;1.00;;;0.00;99.90;;;;;;5021669;28;20201;-80
2021/04/01 05:21:15;;;;;;;0.90;0.90;;;0.10;99.90;;;;;;5022416;28;20221;-82
2021/04/01 05:23:45;;;;;;;1.08;1.00;;;0.10;99.90;;;;;;5042684;28;20250;-81
2021/04/01 05:28:48;;;;;;;0.85;0.85;;;0.20;99.90;;;;;;5034499;28;20197;-81
2021/04/01 05:31:15;;;;;;;1.00;0.95;;;0.20;99.90;;;;;;5021481;28;20225;-85
2021/04/01 05:33:44;;;;;;;3.42;1.10;;;0.30;99.90;;;;;;5038790;28;20207;-81
2021/04/01 05:36:14;;;;;;;1.00;1.00;;;0.20;99.90;;;;;;5000276;28;20202;-80
2021/04/01 05:38:41;;;;;;;1.00;1.00;;;0.30;99.90;;;;;;5013425;28;20237;-80
2021/04/01 05:41:10;;;;;;;0.90;0.90;;;0.30;99.90;;;;;;5020447;28;20194;-81
2021/04/01 05:43:43;;;;;;;0.85;0.85;;;0.30;99.90;;;;;;5037509;28;20190;-81
2021/04/01 05:46:25;;;;;;;2.15;1.00;;;0.40;99.90;;;;;;5026660;28;20220;-80
2021/04/01 05:49:17;;;;;;;2.35;0.90;;;0.40;99.90;;;;;;5022149;28;20299;-82
2021/04/01 05:54:47;;;;;;;1.73;1.00;;;0.60;99.90;;;;;;5028690;28;20582;-79
2021/04/01 06:05:50;;;;;;;1.00;0.93;;;1.10;99.90;;;;;;5040707;28;20730;-80
2021/04/01 06:08:19;;;;;;;0.90;0.90;;;1.20;99.90;;;;;;5016652;28;20206;-80
2021/04/01 06:10:47;;;;;;;0.90;0.90;;;1.20;99.90;;;;;;5035340;28;20208;-84
2021/04/01 06:13:20;;;;;;;0.90;0.82;;;1.30;99.90;;;;;;5026759;28;20213;-81
2021/04/01 06:15:52;;;;;;;0.80;0.80;;;1.40;99.90;;;;;;5034389;28;20260;-80
2021/04/01 06:18:22;;;;;;;0.80;0.80;;;1.50;99.90;;;;;;5015175;28;20212;-81
2021/04/01 06:20:50;;;;;;;1.88;1.00;;;1.50;99.90;;;;;;5016245;28;20198;-81
2021/04/01 06:23:30;;;;;;;3.10;0.93;;;1.70;99.90;;;;;;5035660;28;20225;-80
2021/04/01 06:25:58;;;;;;;1.27;1.00;;;1.70;99.90;;;;;;5035252;28;20196;-80
2021/04/01 06:28:36;;;;;;;0.95;0.85;;;1.80;99.90;;;;;;5019295;28;20672;-80
2021/04/01 06:31:04;;;;;;;1.90;0.80;;;1.90;99.90;;;;;;5019273;28;20284;-79
2021/04/01 06:33:30;;;;;;;0.90;0.90;;;2.00;99.90;;;;;;5037374;28;20285;-81
2021/04/01 06:36:02;;;;;;;0.90;0.90;;;2.10;99.90;;;;;;5032963;28;20695;-84
2021/04/01 06:38:35;;;;;;;1.10;1.00;;;2.10;99.90;;;;;;5039114;28;20717;-81
2021/04/01 06:41:05;;;;;;;0.93;0.90;;;2.20;99.90;;;;;;5022526;28;20193;-84
2021/04/01 06:43:34;;;;;;;0.90;0.90;;;2.30;99.90;;;;;;5033751;28;20570;-84
2021/04/01 06:46:08;;;;;;;0.80;0.80;;;2.40;99.90;;;;;;5020311;28;20193;-82
2021/04/01 06:51:32;;;;;;;0.80;0.80;;;2.40;99.90;;;;;;5037867;28;20190;-79
2021/04/01 06:54:06;;;;;;;0.80;0.80;;;2.50;99.90;;;;;;5022107;28;20227;-80
2021/04/01 06:59:53;;;;;;;1.25;1.00;;;2.80;99.90;;;;;;5021116;28;20224;-79
2021/04/01 07:02:32;;;;;;;1.00;0.90;;;2.90;99.90;;;;;;5009869;28;20374;-81
2021/04/01 07:05:24;;;;;;;0.73;0.73;;;3.00;99.90;;;;;;5023577;28;20945;-82
2021/04/01 07:08:00;;;;;;;0.80;0.80;;;3.00;99.90;;;;;;5025954;28;20942;-81
2021/04/01 07:10:46;;;;;;;0.90;0.90;;;3.00;99.90;;;;;;5044491;28;20197;-81
2021/04/01 07:13:17;;;;;;;0.70;0.70;;;3.10;99.90;;;;;;5021913;28;20233;-81
2021/04/01 07:15:48;;;;;;;0.82;0.82;;;3.10;99.90;;;;;;5026616;28;20280;-82
2021/04/01 07:23:35;;;;;;;0.90;0.90;;;3.40;99.90;;;;;;5045880;28;20201;-81
2021/04/01 07:48:50;;;;;;;0.80;0.80;;;4.10;99.90;;;;;;5040616;28;20259;-80
2021/04/01 07:54:04;;;;;;;0.80;0.80;;;4.40;99.90;;;;;;5040928;28;20201;-80
2021/04/01 07:56:47;;;;;;;1.30;0.80;;;4.50;99.90;;;;;;5039509;28;20300;-81
2021/04/01 08:03:19;;;;;;;0.93;0.82;;;4.80;99.90;;;;;;4941347;28;20264;-82
2021/04/01 08:05:07;;;;;;;0.80;0.80;;;4.90;99.90;;;;;;4943965;28;20663;-80
2021/04/01 08:07:38;;;;;;;0.88;0.88;;;4.90;99.90;;;;;;4938346;28;20201;-81
2021/04/01 08:10:07;;;;;;;1.23;0.95;;;4.90;99.90;;;;;;4924740;28;20209;-80
2021/04/01 08:12:42;;;;;;;1.00;1.00;;;4.90;99.90;;;;;;4931968;28;20741;-81
2021/04/01 08:15:12;;;;;;;1.45;1.05;;;4.90;99.90;;;;;;4937482;28;20271;-82
2021/04/01 08:18:08;;;;;;;0.80;0.80;;;5.00;99.90;;;;;;4927204;28;20236;-81
2021/04/01 08:20:29;;;;;;;0.95;0.90;;;5.00;99.90;;;;;;4941141;28;20639;-81
2021/04/01 08:25:42;;;;;;;0.80;0.80;;;5.20;99.90;;;;;;4943903;28;20648;-80
2021/04/01 08:28:40;;;;;;;0.80;0.80;;;5.30;99.90;;;;;;4925656;28;20264;-79
2021/04/01 08:36:35;;;;;;;1.58;0.80;;;5.60;99.90;;;;;;4998789;28;20264;-79
2021/04/01 08:39:02;;;;;;;1.20;0.90;;;5.60;99.90;;;;;;5040442;28;20288;-83
2021/04/01 08:41:49;;;;;;;0.80;0.80;;;5.70;99.90;;;;;;5038200;28;20220;-80
2021/04/01 08:44:18;;;;;;;0.80;0.80;;;5.80;99.90;;;;;;5019623;28;20553;-81
2021/04/01 08:46:53;;;;;;;0.98;0.90;;;5.80;99.90;;;;;;5031605;28;20190;-81
2021/04/01 08:49:37;;;;;;;1.17;0.90;;;5.80;99.90;;;;;;5046828;28;20209;-81
2021/04/01 08:52:07;;;;;;;0.98;0.80;;;5.90;99.90;;;;;;5029935;28;20794;-83
2021/04/01 08:54:41;;;;;;;1.35;0.90;;;6.00;99.90;;;;;;5019571;28;20817;-80
2021/04/01 08:57:23;;;;;;;1.40;0.80;;;6.20;99.90;;;;;;5020890;28;20324;-82
2021/04/01 09:00:20;;;;;;;4.15;0.80;;;6.30;99.90;;;;;;5035812;28;20214;-82
2021/04/01 09:02:49;;;;;;;1.75;0.80;;;6.30;99.90;;;;;;5004942;28;20228;-81
2021/04/01 09:05:15;;;;;;;0.80;0.80;;;6.30;99.90;;;;;;5030654;28;20718;-81
2021/04/01 09:07:46;;;;;;;1.00;0.90;;;6.30;99.90;;;;;;5038159;28;20202;-81
2021/04/01 09:13:04;;;;;;;0.82;0.82;;;6.60;99.90;;;;;;5029640;28;20484;-82
2021/04/01 09:15:41;;;;;;;0.82;0.82;;;6.80;99.90;;;;;;5013905;28;20210;-80
2021/04/01 09:18:06;;;;;;;0.98;0.90;;;7.00;99.90;;;;;;5012518;28;20681;-81
2021/04/01 09:20:33;;;;;;;0.70;0.70;;;7.00;99.90;;;;;;5037351;28;20208;-82
2021/04/01 09:23:04;;;;;;;0.73;0.73;;;7.00;99.90;;;;;;5018823;28;20678;-82
2021/04/01 09:25:49;;;;;;;1.13;0.70;;;6.80;99.90;;;;;;5012204;28;20198;-82
2021/04/01 09:28:16;;;;;;;1.50;1.15;;;6.80;99.90;;;;;;5031728;28;20196;-81
2021/04/01 09:30:43;;;;;;;1.05;1.00;;;6.90;99.90;;;;;;5020120;28;20205;-81
2021/04/01 09:33:18;;;;;;;1.23;1.00;;;7.10;99.90;;;;;;5030318;28;20205;-82
2021/04/01 09:35:44;;;;;;;1.02;0.80;;;7.30;99.90;;;;;;5029828;28;20201;-82
2021/04/01 09:38:11;;;;;;;1.30;0.80;;;7.40;99.90;;;;;;5030386;28;20241;-83
2021/04/01 09:40:45;;;;;;;1.27;0.90;;;7.50;99.90;;;;;;5015807;28;20225;-81
2021/04/01 09:43:18;;;;;;;0.93;0.70;;;7.50;99.90;;;;;;5022984;28;20568;-82
2021/04/01 09:45:48;;;;;;;0.70;0.70;;;7.70;99.90;;;;;;5036431;28;20194;-82
2021/04/01 09:48:16;;;;;;;0.70;0.70;;;7.80;99.90;;;;;;5032459;28;20203;-81
2021/04/01 09:50:46;;;;;;;0.80;0.80;;;7.90;99.90;;;;;;5018516;28;20994;-81
2021/04/01 09:53:20;;;;;;;0.70;0.70;;;7.90;99.90;;;;;;5031356;28;20205;-83
2021/04/01 09:55:52;;;;;;;0.88;0.88;;;7.70;99.90;;;;;;5015136;28;20205;-81
2021/04/01 09:58:24;;;;;;;0.70;0.70;;;7.90;99.90;;;;;;5032386;28;20197;-82
2021/04/01 10:03:22;;;;;;;2.53;1.00;;;8.40;99.90;;;;;;5034159;28;20228;-81
2021/04/01 10:05:49;;;;;;;0.70;0.70;;;8.50;99.90;;;;;;5032693;28;20227;-80
2021/04/01 10:08:25;;;;;;;0.80;0.80;;;8.50;99.90;;;;;;5022095;28;20220;-81
2021/04/01 10:10:55;;;;;;;0.88;0.73;;;8.70;99.90;;;;;;5034880;28;20197;-82
2021/04/01 10:13:26;;;;;;;0.70;0.70;;;8.90;99.90;;;;;;5015285;28;20442;-82
2021/04/01 10:15:54;;;;;;;1.55;0.90;;;9.20;99.90;;;;;;5034531;28;20586;-82
2021/04/01 10:18:36;;;;;;;1.13;0.90;;;9.40;99.90;;;;;;5014910;28;20218;-81
2021/04/01 10:21:12;;;;;;;0.77;0.77;;;9.60;99.90;;;;;;5035332;28;20225;-81
2021/04/01 10:23:47;;;;;;;0.85;0.70;;;9.80;99.90;;;;;;5033054;28;20210;-81
2021/04/01 10:26:15;;;;;;;0.90;0.80;;;9.90;99.90;;;;;;5019913;28;20609;-83
2021/04/01 10:29:06;;;;;;;4.20;0.80;;;9.90;99.90;;;;;;5037337;28;20267;-84
2021/04/01 10:31:43;;;;;;;0.77;0.77;;;10.10;99.90;;;;;;5035124;28;20197;-81
2021/04/01 10:34:33;;;;;;;1.75;0.70;;;10.50;98.60;;;;;;5035464;28;20224;-81
2021/04/01 10:37:00;;;;;;;1.85;0.90;;;10.50;94.80;;;;;;5038750;28;20209;-82
2021/04/01 10:39:32;;;;;;;0.70;0.70;;;10.60;97.00;;;;;;5040186;28;20553;-81
2021/04/01 10:41:59;;;;;;;0.70;0.70;;;10.90;93.70;;;;;;5041834;28;20292;-81
2021/04/01 10:44:25;;;;;;;0.82;0.70;;;10.80;95.20;;;;;;5025062;28;20252;-81
2021/04/01 10:46:54;;;;;;;0.68;0.68;;;11.10;94.20;;;;;;5041726;28;20262;-81
2021/04/01 10:49:29;;;;;;;0.70;0.70;;;11.30;90.60;;;;;;5017033;28;20205;-81
2021/04/01 10:51:56;;;;;;;0.70;0.70;;;11.40;92.90;;;;;;5041971;28;20197;-80
2021/04/01 10:54:23;;;;;;;0.60;0.60;;;11.60;93.60;;;;;;5016923;28;20197;-80
2021/04/01 10:56:53;;;;;;;0.63;0.63;;;11.90;90.10;;;;;;5034237;28;20213;-81
2021/04/01 10:59:39;;;;;;;1.23;0.70;;;11.90;91.20;;;;;;5035670;28;20212;-81
2021/04/01 11:02:19;;;;;;;0.65;0.60;;;12.00;90.80;;;;;;5025296;28;20229;-80
2021/04/01 11:05:01;;;;;;;2.92;0.80;;;12.10;91.80;;;;;;5017655;28;20193;-80
2021/04/01 11:07:34;;;;;;;0.57;0.57;;;12.40;91.40;;;;;;5020165;28;20194;-83
2021/04/01 11:10:01;;;;;;;0.70;0.70;;;12.90;90.90;;;;;;5023261;28;20671;-80
2021/04/01 11:12:28;;;;;;;0.60;0.60;;;12.80;83.00;;;;;;5020204;28;20564;-81
2021/04/01 11:15:05;;;;;;;0.60;0.60;;;12.80;82.60;;;;;;5020027;28;20224;-80
2021/04/01 11:17:34;;;;;;;0.95;0.60;;;13.00;85.20;;;;;;5019376;28;20736;-84
2021/04/01 11:20:03;;;;;;;1.63;0.65;;;13.00;80.40;;;;;;5029412;28;20227;-80
2021/04/01 11:22:29;;;;;;;0.70;0.70;;;12.60;75.70;;;;;;5037630;28;20203;-81
2021/04/01 11:24:55;;;;;;;0.65;0.65;;;12.70;81.60;;;;;;5039805;28;20562;-82
2021/04/01 11:27:22;;;;;;;0.60;0.60;;;12.50;72.80;;;;;;5021464;28;20206;-80
2021/04/01 11:29:58;;;;;;;0.75;0.60;;;12.60;77.90;;;;;;5034046;28;20747;-81
2021/04/01 11:32:31;;;;;;;0.50;0.50;;;12.90;74.40;;;;;;5021599;28;20688;-78
2021/04/01 11:35:02;;;;;;;0.60;0.60;;;12.90;75.20;;;;;;5017921;28;20243;-82
2021/04/01 11:37:32;;;;;;;0.60;0.60;;;12.90;79.70;;;;;;5022218;28;20204;-81
2021/04/01 11:40:01;;;;;;;0.70;0.70;;;12.90;76.50;;;;;;5022043;28;20202;-80
2021/04/01 11:42:28;;;;;;;0.85;0.63;;;13.10;79.10;;;;;;5022675;28;20765;-81
2021/04/01 11:44:59;;;;;;;0.55;0.55;;;12.80;72.60;;;;;;5038047;28;20511;-80
2021/04/01 11:47:26;;;;;;;0.60;0.60;;;12.80;75.40;;;;;;5026141;28;20596;-80
2021/04/01 11:49:52;;;;;;;0.50;0.50;;;13.00;77.30;;;;;;5039205;28;20202;-81
2021/04/01 11:52:20;;;;;;;1.02;0.63;;;13.60;78.40;;;;;;5046182;28;20309;-82
2021/04/01 11:54:47;;;;;;;0.60;0.60;;;14.00;76.20;;;;;;5042718;28;20197;-81
2021/04/01 11:57:30;;;;;;;0.80;0.60;;;13.90;74.20;;;;;;5028040;28;20202;-84
2021/04/01 12:00:04;;;;;;;0.47;0.47;;;14.10;74.60;;;;;;5022271;28;20208;-81
2021/04/01 12:02:31;;;;;;;0.57;0.57;;;13.80;69.60;;;;;;5024893;28;20574;-82
2021/04/01 12:05:00;;;;;;;0.52;0.50;;;13.40;70.80;;;;;;5042284;28;20551;-82
2021/04/01 12:07:29;;;;;;;0.63;0.60;;;13.80;72.80;;;;;;5040970;28;20194;-81
2021/04/01 12:09:55;;;;;;;0.77;0.70;;;13.80;70.70;;;;;;5022530;28;20198;-81
2021/04/01 12:12:53;;;;;;;1.90;0.70;;;14.50;82.30;;;;;;5039052;28;20684;-80
2021/04/01 12:15:40;;;;;;;5.60;0.70;;;14.50;70.60;;;;;;5015653;28;20272;-80
2021/04/01 12:18:07;;;;;;;1.00;0.70;;;14.70;79.70;;;;;;5001268;28;20323;-81
2021/04/01 12:20:36;;;;;;;3.60;0.60;;;15.40;85.30;;;;;;5002658;28;20732;-81
2021/04/01 12:23:09;;;;;;;0.50;0.50;;;15.40;71.10;;;;;;5019356;28;20190;-82
2021/04/01 12:25:34;;;;;;;1.27;0.55;;;15.40;72.60;;;;;;4999171;28;20255;-81
2021/04/01 12:28:00;;;;;;;0.70;0.70;;;15.20;67.60;;;;;;5002559;28;20795;-84
2021/04/01 12:30:40;;;;;;;0.60;0.60;;;14.90;66.50;;;;;;5014891;28;20201;-82
2021/04/01 12:33:07;;;;;;;0.57;0.57;;;14.60;68.30;;;;;;5021039;28;20297;-82
2021/04/01 12:35:33;;;;;;;0.60;0.60;;;14.40;69.30;;;;;;5020536;28;20216;-82
2021/04/01 12:38:02;;;;;;;0.93;0.80;;;14.20;76.10;;;;;;5001627;28;20198;-81
2021/04/01 12:40:28;;;;;;;0.63;0.63;;;14.70;73.90;;;;;;5022588;28;20719;-81
2021/04/01 12:43:09;;;;;;;1.85;0.60;;;14.90;68.50;;;;;;5001753;28;20583;-80
2021/04/01 12:45:37;;;;;;;1.42;0.90;;;15.20;75.40;;;;;;5018749;28;20194;-83
2021/04/01 12:48:11;;;;;;;0.50;0.50;;;15.20;70.70;;;;;;5013254;28;20201;-81
2021/04/01 12:50:40;;;;;;;0.40;0.40;;;15.20;71.50;;;;;;4998698;28;20240;-83
2021/04/01 12:53:06;;;;;;;0.45;0.45;;;14.70;69.50;;;;;;4999652;28;20209;-83
2021/04/01 12:55:50;;;;;;;4.70;1.33;;;14.90;72.00;;;;;;5012583;28;20538;-83
2021/04/01 12:59:18;;;;;;;11.32;2.25;;;15.10;79.80;;;;;;4998981;28;20334;-83
2021/04/01 13:01:39;;;;;;;4.00;1.80;;;15.60;76.80;;;;;;5002995;28;20245;-83
2021/04/01 13:04:07;;;;;;;6.53;3.03;;;16.10;74.60;;;;;;4999078;28;20531;-82
2021/04/01 13:11:52;;;;;;;0.47;0.47;;;15.50;66.80;;;;;;4988936;28;20206;-82
2021/04/01 13:14:19;;;;;;;0.50;0.40;;;15.00;69.90;;;;;;5024214;28;21058;-83
2021/04/01 13:16:45;;;;;;;0.50;0.50;;;14.80;70.90;;;;;;5033154;28;20209;-82
2021/04/01 13:19:11;;;;;;;0.95;0.63;;;14.40;69.70;;;;;;5031587;28;20217;-83
2021/04/01 13:21:41;;;;;;;0.50;0.50;;;14.10;70.40;;;;;;5016451;28;20201;-82
2021/04/01 13:24:37;;;;;;;0.60;0.60;;;13.60;71.60;;;;;;5020276;28;20189;-81
2021/04/01 13:27:10;;;;;;;2.60;0.70;;;13.40;73.40;;;;;;5018492;28;20263;-82
2021/04/01 13:29:38;;;;;;;0.60;0.60;;;12.90;73.30;;;;;;5035473;28;20197;-83
2021/04/01 13:37:24;;;;;;;0.80;0.60;;;13.70;72.50;;;;;;5035679;28;20197;-82
2021/04/01 13:39:53;;;;;;;0.60;0.60;;;13.50;72.50;;;;;;5018717;28;20210;-82
2021/04/01 13:42:22;;;;;;;0.70;0.70;;;13.90;72.40;;;;;;5041028;28;20198;-83
2021/04/01 13:47:14;;;;;;;0.70;0.70;;;13.60;68.60;;;;;;5034763;28;20243;-84
2021/04/01 13:49:42;;;;;;;0.60;0.60;;;13.20;68.80;;;;;;5018358;28;20206;-82
2021/04/01 13:55:03;;;;;;;1.02;0.82;;;12.80;70.90;;;;;;5039324;28;20252;-84
2021/04/01 14:04:01;;;;;;;1.63;0.70;;;12.60;70.50;;;;;;5037540;28;20293;-82
2021/04/01 14:09:35;;;;;;;0.93;0.82;;;13.10;70.10;;;;;;5035278;28;20208;-87
2021/04/01 14:12:05;;;;;;;1.05;0.80;;;13.30;70.40;;;;;;5032439;28;20205;-87
2021/04/01 14:14:33;;;;;;;1.83;0.75;;;13.30;68.60;;;;;;5035027;28;20656;-83
2021/04/01 14:16:59;;;;;;;0.70;0.70;;;13.00;69.60;;;;;;5032985;28;20206;-84
2021/04/01 14:19:27;;;;;;;0.80;0.80;;;13.10;67.00;;;;;;5017212;28;20205;-85
2021/04/01 14:22:31;;;;;;;0.90;0.70;;;12.90;68.30;;;;;;5027030;28;20197;-85
2021/04/01 14:25:03;;;;;;;1.10;0.63;;;12.90;68.60;;;;;;5021108;28;20603;-85
2021/04/01 14:27:38;;;;;;;1.70;0.80;;;12.80;65.90;;;;;;5021767;28;20904;-82
2021/04/01 14:30:06;;;;;;;0.68;0.65;;;12.50;69.10;;;;;;5044182;28;20873;-82
2021/04/01 14:32:33;;;;;;;0.60;0.60;;;12.30;69.00;;;;;;5035839;28;20202;-83
2021/04/01 14:35:01;;;;;;;0.85;0.70;;;12.20;70.40;;;;;;5038163;28;20185;-82
2021/04/01 14:37:29;;;;;;;0.60;0.60;;;12.00;67.60;;;;;;5024650;28;20210;-82
2021/04/01 14:39:56;;;;;;;1.40;0.90;;;11.90;70.60;;;;;;5048083;28;20266;-82
2021/04/01 14:42:30;;;;;;;0.80;0.80;;;11.50;69.50;;;;;;5043693;28;20284;-82
2021/04/01 14:44:56;;;;;;;0.60;0.60;;;11.40;70.30;;;;;;5046067;28;20197;-82
2021/04/01 14:47:23;;;;;;;0.60;0.60;;;11.00;72.00;;;;;;5050062;28;20198;-82
2021/04/01 14:49:52;;;;;;;0.70;0.70;;;11.00;73.60;;;;;;5047550;28;20193;-82
2021/04/01 14:52:23;;;;;;;0.70;0.70;;;10.90;72.30;;;;;;5051509;28;20206;-82
2021/04/01 14:54:50;;;;;;;1.42;0.85;;;11.00;73.20;;;;;;5033332;28;20282;-83
2021/04/01 14:57:17;;;;;;;0.77;0.77;;;11.40;72.60;;;;;;5025927;28;20200;-82
2021/04/01 14:59:46;;;;;;;1.20;0.70;;;11.50;72.70;;;;;;5023303;28;20210;-83
2021/04/01 15:02:15;;;;;;;0.88;0.80;;;11.20;72.00;;;;;;5039643;28;20263;-82
2021/04/01 15:04:41;;;;;;;0.60;0.60;;;11.10;71.80;;;;;;5035609;28;20236;-81